Current Conditions
Mostly Cloudy
Conditions



Pressure
30.02 (inHG) - 1016.62 (mb)
Visibility

10.0 (mimiles) - 16.1 (km)
   Temperature
82  °F
28°C
63  °F
17°C
51  %
 Humidity
   Wind Speed
18  mph
16  kts
29  km/h
8.0  m/s
   Wind Direction
 230°
South West
   Airport Data
KTZR
Location Bolton Field 6 mi (9.65 km)
Metar :KTZR 221850Z 23016G21KT 10SM BKN060 28/17 A3002
Wed 22nd May 14:50 pm
   Raw Metar Info
Raw METAR is the most common format in the world for the transmission of observational weather data. It is highly standardized through the International Civil Aviation Organization (ICAO), which allows it to be understood throughout most of the world.
   API Info
Data Provided by
https://www.checkwx.com/weather/KTZR
   © Info
CSS/SVG/PHP scripts were developed by weather34.com for use in the weather34 template © 2015-2019

Guide Info provided by Metar-Wikipedia